createdAt,value
2023-01-26T00:00:29.681Z,91.71
2023-01-26T00:01:29.712Z,91.91
2023-01-26T00:02:29.673Z,91.91
2023-01-26T00:03:29.652Z,91.91
2023-01-26T00:04:29.657Z,91.71
2023-01-26T00:05:29.655Z,91.71
2023-01-26T00:06:29.626Z,91.77
2023-01-26T00:07:29.601Z,91.60
2023-01-26T00:08:29.598Z,91.56
2023-01-26T00:09:29.669Z,91.66
2023-01-26T00:10:29.600Z,91.77
2023-01-26T00:11:29.587Z,91.98
2023-01-26T00:12:29.554Z,91.77
2023-01-26T00:13:29.565Z,91.66
2023-01-26T00:14:29.560Z,91.46
2023-01-26T00:15:29.541Z,91.18
2023-01-26T00:16:29.675Z,91.18
2023-01-26T00:17:29.533Z,91.39
2023-01-26T00:18:29.506Z,91.50
2023-01-26T00:19:29.500Z,91.60
2023-01-26T00:20:29.485Z,91.39
2023-01-26T00:21:29.473Z,91.50
2023-01-26T00:22:29.510Z,91.60
2023-01-26T00:23:29.434Z,91.71
2023-01-26T00:24:29.474Z,91.71
2023-01-26T00:25:29.425Z,91.71
2023-01-26T00:26:29.424Z,91.77
2023-01-26T00:27:29.417Z,91.77
2023-01-26T00:28:29.425Z,91.87
2023-01-26T00:29:29.397Z,91.87
2023-01-26T00:30:29.424Z,91.87
2023-01-26T00:31:29.442Z,91.87
2023-01-26T00:32:30.293Z,91.66
2023-01-26T00:33:29.339Z,91.56
2023-01-26T00:34:29.331Z,91.56
2023-01-26T00:35:29.305Z,91.66
2023-01-26T00:36:29.296Z,91.46
2023-01-26T00:37:31.906Z,90.83
2023-01-26T00:38:29.289Z,90.66
2023-01-26T00:39:29.297Z,90.87
2023-01-26T00:40:29.250Z,91.03
2023-01-26T00:41:29.302Z,91.24
2023-01-26T00:42:29.239Z,91.46
2023-01-26T00:43:29.226Z,91.66
2023-01-26T00:44:29.255Z,91.77
2023-01-26T00:45:29.203Z,91.77
2023-01-26T00:46:29.249Z,91.66
2023-01-26T00:47:29.178Z,91.46
2023-01-26T00:48:29.161Z,91.46
2023-01-26T00:49:29.159Z,91.03
2023-01-26T00:50:29.183Z,91.03
2023-01-26T00:51:29.160Z,91.24
2023-01-26T00:52:29.668Z,91.35
2023-01-26T00:53:29.128Z,91.56
2023-01-26T00:54:29.128Z,91.66
2023-01-26T00:55:29.136Z,91.77
2023-01-26T00:56:29.113Z,91.87
2023-01-26T00:57:29.071Z,91.94
2023-01-26T00:58:29.077Z,91.94
2023-01-26T00:59:29.048Z,91.72
2023-01-26T01:00:29.060Z,91.52
2023-01-26T01:01:29.044Z,90.89
2023-01-26T01:02:29.024Z,90.72
2023-01-26T01:03:29.010Z,90.51
2023-01-26T01:04:29.039Z,90.83
2023-01-26T01:05:29.029Z,90.89
2023-01-26T01:06:28.973Z,90.99
2023-01-26T01:07:28.975Z,91.14
2023-01-26T01:08:28.987Z,91.09
2023-01-26T01:09:28.949Z,91.20
2023-01-26T01:10:28.960Z,91.20
2023-01-26T01:11:28.918Z,91.20
2023-01-26T01:12:29.034Z,91.09
2023-01-26T01:13:28.894Z,91.09
2023-01-26T01:14:28.892Z,91.09
2023-01-26T01:15:28.888Z,90.99
2023-01-26T01:16:28.919Z,90.99
2023-01-26T01:17:28.853Z,90.99
2023-01-26T01:18:28.875Z,90.99
2023-01-26T01:19:29.098Z,90.99
2023-01-26T01:20:28.962Z,90.99
2023-01-26T01:21:28.896Z,90.99
2023-01-26T01:22:28.799Z,90.99
2023-01-26T01:23:28.804Z,90.89
2023-01-26T01:24:28.803Z,90.89
2023-01-26T01:25:28.786Z,90.78
2023-01-26T01:26:28.770Z,90.78
2023-01-26T01:27:28.752Z,90.78
2023-01-26T01:28:28.799Z,90.78
2023-01-26T01:29:28.730Z,90.89
2023-01-26T01:30:28.765Z,90.99
2023-01-26T01:31:28.778Z,91.09
2023-01-26T01:32:28.741Z,91.09
2023-01-26T01:33:28.691Z,91.09
2023-01-26T01:34:28.681Z,91.09
2023-01-26T01:35:29.185Z,91.09
2023-01-26T01:36:28.649Z,91.09
2023-01-26T01:37:28.685Z,91.20
2023-01-26T01:38:28.644Z,91.20
2023-01-26T01:39:28.617Z,91.20
2023-01-26T01:40:28.710Z,91.20
2023-01-26T01:41:28.608Z,91.20
2023-01-26T01:42:28.597Z,91.09
2023-01-26T01:43:28.582Z,91.09
2023-01-26T01:44:28.596Z,90.89
2023-01-26T01:45:28.587Z,90.84
2023-01-26T01:46:28.680Z,90.95
2023-01-26T01:47:28.560Z,91.06
2023-01-26T01:48:28.529Z,91.06
2023-01-26T01:49:28.509Z,91.06
2023-01-26T01:50:28.556Z,90.84
2023-01-26T01:51:28.491Z,90.74
2023-01-26T01:52:28.491Z,90.64
2023-01-26T01:53:28.562Z,90.64
2023-01-26T01:54:28.494Z,90.53
2023-01-26T01:55:28.448Z,89.73
2023-01-26T01:56:28.495Z,89.73
2023-01-26T01:57:28.440Z,90.05
2023-01-26T01:58:28.411Z,90.26
2023-01-26T01:59:28.408Z,90.47
2023-01-26T02:00:28.439Z,90.58
2023-01-26T02:01:28.411Z,90.58
2023-01-26T02:02:28.412Z,90.58
2023-01-26T02:03:28.348Z,90.68
2023-01-26T02:04:28.405Z,90.09
2023-01-26T02:05:28.342Z,90.09
2023-01-26T02:06:29.221Z,90.30
2023-01-26T02:07:28.312Z,90.34
2023-01-26T02:08:28.363Z,90.45
2023-01-26T02:09:28.298Z,90.76
2023-01-26T02:10:28.298Z,91.08
2023-01-26T02:11:28.456Z,91.28
2023-01-26T02:12:28.387Z,91.28
2023-01-26T02:13:29.190Z,91.08
2023-01-26T02:14:28.236Z,91.28
2023-01-26T02:15:28.274Z,91.28
2023-01-26T02:16:28.327Z,91.28
2023-01-26T02:17:28.210Z,91.50
2023-01-26T02:18:28.199Z,91.81
2023-01-26T02:19:28.185Z,91.91
2023-01-26T02:20:28.175Z,92.02
2023-01-26T02:21:28.237Z,92.13
2023-01-26T02:22:28.154Z,92.13
2023-01-26T02:23:28.251Z,91.71
2023-01-26T02:24:28.149Z,91.28
2023-01-26T02:25:28.115Z,91.28
2023-01-26T02:26:28.136Z,91.50
2023-01-26T02:27:28.091Z,91.50
2023-01-26T02:28:28.103Z,91.60
2023-01-26T02:29:28.071Z,91.71
2023-01-26T02:30:28.074Z,91.60
2023-01-26T02:31:28.166Z,91.50
2023-01-26T02:32:28.038Z,91.50
2023-01-26T02:33:28.122Z,91.50
2023-01-26T02:34:28.027Z,91.56
2023-01-26T02:35:28.023Z,91.66
2023-01-26T02:36:28.020Z,91.66
2023-01-26T02:37:27.994Z,91.66
2023-01-26T02:38:27.997Z,91.66
2023-01-26T02:39:27.967Z,91.66
2023-01-26T02:40:28.002Z,91.66
2023-01-26T02:41:27.976Z,91.03
2023-01-26T02:42:27.967Z,90.61
2023-01-26T02:43:27.918Z,90.51
2023-01-26T02:44:27.914Z,90.76
2023-01-26T02:45:27.917Z,90.93
2023-01-26T02:46:28.005Z,90.97
2023-01-26T02:47:27.888Z,90.87
2023-01-26T02:48:27.866Z,90.87
2023-01-26T02:49:27.868Z,90.97
2023-01-26T02:50:27.863Z,91.08
2023-01-26T02:51:28.167Z,91.28
2023-01-26T02:52:27.859Z,91.39
2023-01-26T02:53:27.861Z,91.46
2023-01-26T02:54:27.913Z,91.46
2023-01-26T02:55:27.795Z,91.50
2023-01-26T02:56:27.859Z,91.56
2023-01-26T02:57:27.779Z,91.56
2023-01-26T02:58:27.781Z,91.56
2023-01-26T02:59:27.749Z,91.46
2023-01-26T03:00:27.799Z,91.35
2023-01-26T03:01:27.726Z,91.18
2023-01-26T03:02:27.750Z,90.97
2023-01-26T03:03:27.715Z,90.97
2023-01-26T03:04:27.705Z,91.08
2023-01-26T03:05:27.703Z,91.18
2023-01-26T03:06:27.720Z,91.28
2023-01-26T03:07:27.710Z,91.39
2023-01-26T03:08:27.671Z,91.35
2023-01-26T03:09:27.661Z,91.35
2023-01-26T03:10:27.670Z,91.14
2023-01-26T03:11:27.621Z,91.14
2023-01-26T03:12:27.632Z,91.24
2023-01-26T03:13:27.603Z,91.35
2023-01-26T03:14:27.698Z,91.46
2023-01-26T03:15:27.594Z,91.24
2023-01-26T03:16:27.664Z,91.14
2023-01-26T03:17:27.604Z,91.14
2023-01-26T03:18:27.597Z,91.14
2023-01-26T03:19:27.711Z,91.03
2023-01-26T03:20:27.542Z,91.14
2023-01-26T03:21:27.569Z,91.03
2023-01-26T03:22:27.560Z,91.14
2023-01-26T03:23:27.548Z,91.03
2023-01-26T03:24:27.486Z,91.03
2023-01-26T03:25:27.493Z,91.03
2023-01-26T03:26:27.459Z,91.03
2023-01-26T03:27:27.541Z,91.03
2023-01-26T03:28:27.444Z,90.61
2023-01-26T03:29:27.427Z,90.09
2023-01-26T03:30:27.503Z,90.13
2023-01-26T03:31:27.462Z,90.34
2023-01-26T03:32:27.421Z,90.45
2023-01-26T03:33:27.400Z,90.55
2023-01-26T03:34:27.435Z,90.55
2023-01-26T03:35:27.389Z,90.55
2023-01-26T03:36:27.363Z,90.13
2023-01-26T03:37:27.376Z,90.23
2023-01-26T03:38:27.334Z,90.13
2023-01-26T03:39:27.506Z,90.03
2023-01-26T03:40:27.352Z,90.23
2023-01-26T03:41:27.317Z,90.55
2023-01-26T03:42:27.311Z,90.76
2023-01-26T03:43:27.348Z,90.45
2023-01-26T03:44:27.311Z,90.23
2023-01-26T03:45:27.283Z,90.13
2023-01-26T03:46:27.298Z,90.34
2023-01-26T03:47:27.258Z,90.66
2023-01-26T03:48:27.223Z,90.66
2023-01-26T03:49:27.212Z,90.13
2023-01-26T03:50:27.228Z,90.13
2023-01-26T03:51:27.210Z,89.92
2023-01-26T03:52:27.256Z,89.75
2023-01-26T03:53:27.168Z,89.75
2023-01-26T03:54:27.181Z,89.97
2023-01-26T03:55:27.160Z,90.17
2023-01-26T03:56:27.182Z,90.34
2023-01-26T03:57:27.149Z,90.76
2023-01-26T03:58:27.135Z,91.08
2023-01-26T03:59:27.112Z,90.66
2023-01-26T04:00:27.138Z,90.23
2023-01-26T04:01:27.096Z,90.17
2023-01-26T04:02:27.128Z,90.17
2023-01-26T04:03:27.065Z,90.38
2023-01-26T04:04:27.102Z,90.59
2023-01-26T04:05:27.067Z,90.76
2023-01-26T04:06:27.112Z,90.97
2023-01-26T04:07:27.013Z,90.97
2023-01-26T04:08:27.038Z,90.76
2023-01-26T04:09:27.020Z,90.49
2023-01-26T04:10:26.994Z,90.49
2023-01-26T04:11:26.981Z,90.59
2023-01-26T04:12:27.026Z,90.66
2023-01-26T04:13:27.024Z,90.55
2023-01-26T04:14:26.947Z,90.59
2023-01-26T04:15:26.968Z,90.38
2023-01-26T04:16:27.007Z,90.28
2023-01-26T04:17:26.919Z,90.38
2023-01-26T04:18:26.930Z,90.59
2023-01-26T04:19:27.005Z,90.91
2023-01-26T04:20:26.899Z,91.12
2023-01-26T04:21:27.074Z,91.33
2023-01-26T04:22:26.931Z,91.28
2023-01-26T04:23:26.877Z,91.18
2023-01-26T04:24:26.963Z,91.18
2023-01-26T04:25:26.839Z,91.28
2023-01-26T04:26:26.863Z,91.18
2023-01-26T04:27:26.828Z,91.18
2023-01-26T04:28:26.801Z,91.08
2023-01-26T04:29:26.799Z,90.97
2023-01-26T04:30:26.852Z,90.87
2023-01-26T04:31:26.844Z,90.87
2023-01-26T04:32:26.779Z,90.87
2023-01-26T04:33:26.788Z,90.76
2023-01-26T04:34:26.766Z,90.87
2023-01-26T04:35:26.765Z,90.87
2023-01-26T04:36:26.733Z,90.87
2023-01-26T04:37:26.791Z,90.76
2023-01-26T04:38:26.724Z,90.34
2023-01-26T04:39:26.713Z,90.03
2023-01-26T04:40:26.671Z,89.92
2023-01-26T04:41:26.659Z,89.92
2023-01-26T04:42:26.662Z,90.03
2023-01-26T04:43:26.668Z,90.23
2023-01-26T04:44:26.621Z,90.03
2023-01-26T04:45:26.624Z,90.03
2023-01-26T04:46:26.626Z,90.23
2023-01-26T04:47:29.108Z,90.45
2023-01-26T04:48:26.692Z,90.66
2023-01-26T04:49:26.576Z,90.76
2023-01-26T04:50:26.561Z,90.87
2023-01-26T04:51:26.568Z,90.87
2023-01-26T04:52:26.536Z,90.97
2023-01-26T04:53:26.551Z,90.93
2023-01-26T04:54:26.521Z,90.83
2023-01-26T04:55:26.535Z,90.72
2023-01-26T04:56:26.504Z,90.61
2023-01-26T04:57:27.463Z,90.30
2023-01-26T04:58:26.484Z,90.20
2023-01-26T04:59:26.475Z,90.20
2023-01-26T05:00:26.514Z,90.30
2023-01-26T05:01:26.517Z,89.98
2023-01-26T05:02:26.489Z,89.61
2023-01-26T05:03:26.457Z,89.50
2023-01-26T05:04:26.525Z,89.40
2023-01-26T05:05:26.550Z,89.50
2023-01-26T05:06:26.400Z,89.61
2023-01-26T05:07:26.433Z,89.61
2023-01-26T05:08:26.458Z,89.61
2023-01-26T05:09:26.389Z,89.19
2023-01-26T05:10:26.362Z,89.09
2023-01-26T05:11:26.391Z,89.09
2023-01-26T05:12:26.316Z,89.29
2023-01-26T05:13:26.405Z,89.40
2023-01-26T05:14:26.313Z,89.61
2023-01-26T05:15:26.309Z,89.82
2023-01-26T05:16:26.289Z,90.03
2023-01-26T05:17:26.282Z,90.13
2023-01-26T05:18:26.425Z,89.92
2023-01-26T05:19:26.259Z,89.82
2023-01-26T05:20:26.247Z,89.61
2023-01-26T05:21:26.248Z,89.82
2023-01-26T05:22:26.221Z,90.03
2023-01-26T05:23:26.211Z,90.23
2023-01-26T05:24:26.207Z,90.45
2023-01-26T05:25:26.218Z,90.55
2023-01-26T05:26:26.223Z,90.41
2023-01-26T05:27:26.226Z,90.20
2023-01-26T05:28:26.147Z,90.09
2023-01-26T05:29:26.162Z,89.98
2023-01-26T05:30:26.123Z,89.98
2023-01-26T05:31:26.248Z,89.57
2023-01-26T05:32:26.099Z,89.61
2023-01-26T05:33:26.106Z,89.78
2023-01-26T05:34:26.118Z,89.72
2023-01-26T05:35:26.083Z,89.72
2023-01-26T05:36:26.063Z,89.92
2023-01-26T05:37:26.160Z,90.13
2023-01-26T05:38:26.040Z,90.30
2023-01-26T05:39:26.037Z,90.51
2023-01-26T05:40:26.022Z,90.61
2023-01-26T05:41:26.027Z,90.30
2023-01-26T05:42:26.006Z,90.13
2023-01-26T05:43:26.018Z,90.20
2023-01-26T05:44:26.108Z,90.30
2023-01-26T05:45:26.012Z,90.41
2023-01-26T05:46:25.967Z,90.23
2023-01-26T05:47:25.961Z,89.92
2023-01-26T05:48:25.956Z,90.03
2023-01-26T05:49:25.945Z,89.92
2023-01-26T05:50:25.941Z,89.92
2023-01-26T05:51:25.919Z,90.03
2023-01-26T05:52:25.900Z,90.13
2023-01-26T05:53:25.902Z,90.13
2023-01-26T05:54:25.883Z,90.13
2023-01-26T05:55:25.924Z,90.03
2023-01-26T05:56:25.846Z,90.13
2023-01-26T05:57:25.853Z,90.34
2023-01-26T05:58:25.833Z,90.34
2023-01-26T05:59:25.831Z,90.45
2023-01-26T06:00:25.868Z,90.55
2023-01-26T06:01:25.790Z,90.66
2023-01-26T06:02:25.806Z,90.76
2023-01-26T06:03:25.774Z,90.76
2023-01-26T06:04:25.820Z,90.55
2023-01-26T06:05:25.795Z,90.55
2023-01-26T06:06:25.737Z,90.55
2023-01-26T06:07:25.726Z,90.66
2023-01-26T06:08:25.751Z,90.55
2023-01-26T06:09:27.400Z,90.55
2023-01-26T06:10:25.708Z,90.66
2023-01-26T06:11:25.687Z,90.66
2023-01-26T06:12:25.684Z,90.66
2023-01-26T06:13:25.674Z,90.66
2023-01-26T06:14:25.699Z,90.55
2023-01-26T06:15:25.670Z,90.34
2023-01-26T06:16:26.274Z,90.23
2023-01-26T06:17:25.683Z,90.23
2023-01-26T06:18:25.662Z,90.45
2023-01-26T06:19:25.637Z,90.55
2023-01-26T06:20:25.585Z,90.55
2023-01-26T06:21:25.591Z,90.55
2023-01-26T06:22:25.650Z,90.34
2023-01-26T06:23:26.589Z,90.23
2023-01-26T06:24:25.661Z,90.13
2023-01-26T06:25:25.540Z,90.13
2023-01-26T06:26:25.532Z,90.23
2023-01-26T06:27:25.539Z,90.23
2023-01-26T06:28:25.581Z,90.45
2023-01-26T06:29:25.506Z,90.45
2023-01-26T06:30:25.582Z,90.34
2023-01-26T06:31:26.411Z,90.45
2023-01-26T06:32:25.467Z,90.55
2023-01-26T06:33:25.531Z,90.34
2023-01-26T06:34:25.440Z,90.13
2023-01-26T06:35:25.482Z,90.13
2023-01-26T06:36:26.304Z,90.38
2023-01-26T06:37:25.420Z,91.01
2023-01-26T06:38:25.410Z,91.22
2023-01-26T06:39:25.392Z,91.43
2023-01-26T06:40:25.441Z,91.53
2023-01-26T06:41:25.425Z,91.60
2023-01-26T06:42:25.586Z,91.60
2023-01-26T06:43:25.362Z,91.50
2023-01-26T06:44:25.323Z,91.39
2023-01-26T06:45:25.392Z,91.08
2023-01-26T06:46:25.336Z,90.87
2023-01-26T06:47:25.341Z,90.76
2023-01-26T06:48:25.301Z,90.66
2023-01-26T06:49:25.400Z,90.49
2023-01-26T06:50:25.276Z,90.59
2023-01-26T06:51:25.269Z,90.70
2023-01-26T06:52:25.329Z,90.91
2023-01-26T06:53:29.349Z,91.01
2023-01-26T06:54:25.318Z,91.12
2023-01-26T06:55:25.277Z,91.22
2023-01-26T06:56:26.066Z,91.12
2023-01-26T06:57:25.213Z,91.33
2023-01-26T06:58:25.357Z,91.37
2023-01-26T06:59:25.204Z,91.43
2023-01-26T07:00:25.181Z,91.47
2023-01-26T07:01:25.311Z,91.47
2023-01-26T07:02:25.172Z,91.58
2023-01-26T07:03:25.148Z,91.53
2023-01-26T07:04:25.152Z,91.33
2023-01-26T07:05:25.117Z,91.12
2023-01-26T07:06:25.128Z,91.12
2023-01-26T07:07:25.116Z,91.22
2023-01-26T07:08:25.076Z,91.22
2023-01-26T07:09:25.059Z,91.12
2023-01-26T07:10:25.698Z,91.01
2023-01-26T07:11:25.182Z,91.01
2023-01-26T07:12:25.021Z,91.22
2023-01-26T07:13:25.093Z,91.12
2023-01-26T07:14:25.018Z,91.22
2023-01-26T07:15:25.036Z,91.33
2023-01-26T07:16:25.038Z,91.33
2023-01-26T07:17:24.978Z,91.22
2023-01-26T07:18:25.292Z,91.22
2023-01-26T07:19:25.001Z,91.22
2023-01-26T07:20:25.042Z,91.22
2023-01-26T07:21:25.657Z,91.22
2023-01-26T07:22:24.964Z,91.22
2023-01-26T07:23:24.914Z,91.33
2023-01-26T07:24:25.059Z,91.43
2023-01-26T07:25:24.903Z,91.53
2023-01-26T07:26:24.888Z,91.28
2023-01-26T07:27:24.876Z,91.08
2023-01-26T07:28:24.844Z,90.97
2023-01-26T07:29:24.892Z,90.76
2023-01-26T07:30:24.899Z,90.55
2023-01-26T07:31:24.885Z,90.45
2023-01-26T07:32:24.829Z,90.66
2023-01-26T07:33:24.821Z,90.87
2023-01-26T07:34:24.828Z,90.97
2023-01-26T07:35:25.424Z,90.45
2023-01-26T07:36:24.860Z,90.23
2023-01-26T07:37:26.606Z,90.23
2023-01-26T07:38:24.794Z,90.23
2023-01-26T07:39:24.778Z,90.34
2023-01-26T07:40:24.731Z,90.55
2023-01-26T07:41:24.771Z,90.55
2023-01-26T07:42:25.070Z,90.55
2023-01-26T07:43:24.710Z,90.41
2023-01-26T07:44:24.751Z,89.92
2023-01-26T07:45:24.703Z,89.72
2023-01-26T07:46:24.832Z,89.50
2023-01-26T07:47:24.650Z,89.61
2023-01-26T07:48:24.795Z,89.82
2023-01-26T07:49:24.665Z,89.82
2023-01-26T07:50:24.614Z,89.92
2023-01-26T07:51:24.626Z,90.13
2023-01-26T07:52:25.159Z,90.34
2023-01-26T07:53:25.163Z,90.45
2023-01-26T07:54:24.615Z,90.45
2023-01-26T07:55:24.604Z,89.72
2023-01-26T07:56:24.566Z,89.50
2023-01-26T07:57:24.567Z,89.61
2023-01-26T07:58:24.526Z,89.82
2023-01-26T07:59:24.552Z,89.92
2023-01-26T08:00:24.556Z,89.88
2023-01-26T08:01:24.615Z,89.88
2023-01-26T08:02:24.517Z,89.78
2023-01-26T08:03:24.507Z,89.98
2023-01-26T08:04:24.497Z,89.98
2023-01-26T08:05:24.470Z,89.88
2023-01-26T08:06:24.553Z,89.88
2023-01-26T08:07:24.455Z,89.88
2023-01-26T08:08:24.455Z,89.67
2023-01-26T08:09:24.424Z,89.67
2023-01-26T08:10:24.422Z,89.78
2023-01-26T08:11:24.457Z,89.78
2023-01-26T08:12:24.410Z,89.57
2023-01-26T08:13:34.598Z,89.47
2023-01-26T08:14:24.375Z,89.25
2023-01-26T08:15:24.622Z,89.15
2023-01-26T08:16:25.206Z,89.36
2023-01-26T08:17:27.318Z,89.72
2023-01-26T08:18:24.351Z,89.78
2023-01-26T08:19:24.331Z,89.78
2023-01-26T08:20:24.285Z,89.67
2023-01-26T08:21:24.736Z,89.47
2023-01-26T08:22:24.377Z,89.57
2023-01-26T08:23:24.284Z,89.57
2023-01-26T08:24:25.288Z,89.57
2023-01-26T08:25:24.232Z,89.47
2023-01-26T08:26:24.326Z,89.47
2023-01-26T08:27:24.217Z,89.47
2023-01-26T08:28:24.231Z,89.57
2023-01-26T08:29:24.259Z,89.25
2023-01-26T08:30:24.192Z,88.62
2023-01-26T08:31:24.444Z,88.62
2023-01-26T08:32:24.221Z,88.84
2023-01-26T08:33:24.172Z,89.04
2023-01-26T08:34:24.341Z,89.25
2023-01-26T08:35:24.324Z,89.36
2023-01-26T08:36:24.132Z,89.47
2023-01-26T08:37:24.134Z,89.57
2023-01-26T08:38:24.298Z,89.57
2023-01-26T08:39:24.091Z,89.57
2023-01-26T08:40:24.229Z,89.47
2023-01-26T08:41:24.182Z,89.36
2023-01-26T08:42:24.056Z,89.25
2023-01-26T08:43:24.037Z,89.25
2023-01-26T08:44:24.075Z,89.15
2023-01-26T08:45:24.062Z,88.94
2023-01-26T08:46:25.029Z,88.84
2023-01-26T08:47:24.019Z,88.84
2023-01-26T08:48:24.533Z,88.79
2023-01-26T08:49:23.975Z,88.69
2023-01-26T08:50:23.967Z,88.79
2023-01-26T08:51:24.027Z,88.79
2023-01-26T08:52:25.028Z,88.48
2023-01-26T08:53:24.598Z,87.85
2023-01-26T08:54:23.930Z,87.43
2023-01-26T08:55:23.980Z,87.12
2023-01-26T08:56:23.916Z,87.64
2023-01-26T08:57:23.966Z,87.68
2023-01-26T08:58:23.901Z,87.99
2023-01-26T08:59:23.883Z,88.21
2023-01-26T09:00:23.920Z,88.27
2023-01-26T09:01:23.938Z,87.89
2023-01-26T09:02:24.041Z,87.68
2023-01-26T09:03:23.827Z,87.47
2023-01-26T09:04:23.837Z,87.58
2023-01-26T09:05:23.813Z,87.79
2023-01-26T09:06:23.797Z,87.89
2023-01-26T09:07:23.806Z,87.74
2023-01-26T09:08:23.801Z,87.79
2023-01-26T09:09:23.766Z,87.89
2023-01-26T09:10:23.891Z,87.79
2023-01-26T09:11:23.749Z,87.99
2023-01-26T09:12:23.780Z,88.21
2023-01-26T09:13:23.750Z,88.48
2023-01-26T09:14:23.784Z,88.69
2023-01-26T09:15:23.701Z,88.69
2023-01-26T09:16:23.769Z,88.59
2023-01-26T09:17:23.687Z,88.59
2023-01-26T09:18:23.708Z,88.59
2023-01-26T09:19:23.675Z,88.48
2023-01-26T09:20:23.729Z,88.48
2023-01-26T09:21:23.695Z,88.48
2023-01-26T09:22:23.667Z,88.48
2023-01-26T09:23:23.614Z,88.37
2023-01-26T09:24:23.813Z,87.74
2023-01-26T09:25:23.605Z,86.80
2023-01-26T09:26:23.645Z,86.85
2023-01-26T09:27:24.164Z,86.85
2023-01-26T09:28:23.568Z,87.05
2023-01-26T09:29:23.585Z,87.05
2023-01-26T09:30:23.792Z,87.26
2023-01-26T09:31:23.724Z,87.58
2023-01-26T09:32:23.545Z,87.89
2023-01-26T09:33:24.215Z,87.58
2023-01-26T09:34:23.511Z,87.58
2023-01-26T09:35:23.495Z,87.79
2023-01-26T09:36:23.563Z,87.68
2023-01-26T09:37:23.484Z,87.68
2023-01-26T09:38:23.447Z,87.68
2023-01-26T09:39:23.442Z,87.26
2023-01-26T09:40:23.456Z,87.26
2023-01-26T09:41:24.208Z,87.37
2023-01-26T09:42:23.435Z,87.47
2023-01-26T09:43:24.240Z,87.58
2023-01-26T09:44:23.407Z,87.47
2023-01-26T09:45:23.391Z,87.16
2023-01-26T09:46:23.451Z,87.26
2023-01-26T09:47:23.376Z,87.47
2023-01-26T09:48:25.352Z,87.47
2023-01-26T09:49:23.357Z,87.47
2023-01-26T09:50:23.343Z,87.16
2023-01-26T09:51:23.344Z,87.26
2023-01-26T09:52:23.331Z,87.43
2023-01-26T09:53:23.343Z,87.43
2023-01-26T09:54:23.296Z,87.54
2023-01-26T09:55:23.330Z,87.54
2023-01-26T09:56:24.035Z,86.91
2023-01-26T09:57:23.267Z,86.70
2023-01-26T09:58:23.266Z,86.38
2023-01-26T09:59:23.215Z,86.70
2023-01-26T10:00:23.267Z,86.80
2023-01-26T10:01:23.275Z,87.01
2023-01-26T10:02:23.262Z,87.01
2023-01-26T10:03:23.213Z,87.01
2023-01-26T10:04:23.196Z,87.23
2023-01-26T10:05:23.274Z,87.23
2023-01-26T10:06:23.177Z,86.80
2023-01-26T10:07:23.150Z,86.18
2023-01-26T10:08:23.171Z,86.28
2023-01-26T10:09:23.708Z,86.49
2023-01-26T10:10:23.131Z,86.49
2023-01-26T10:11:23.106Z,86.38
2023-01-26T10:12:23.193Z,86.49
2023-01-26T10:13:23.135Z,86.60
2023-01-26T10:14:23.141Z,86.91
2023-01-26T10:15:23.110Z,87.43
2023-01-26T10:16:23.053Z,87.74
2023-01-26T10:17:23.660Z,87.54
2023-01-26T10:18:23.168Z,87.23
2023-01-26T10:19:23.014Z,87.23
2023-01-26T10:20:23.040Z,86.60
2023-01-26T10:21:22.992Z,86.70
2023-01-26T10:22:22.989Z,86.28
2023-01-26T10:23:22.985Z,87.01
2023-01-26T10:24:23.106Z,87.23
2023-01-26T10:25:25.285Z,87.12
2023-01-26T10:26:22.966Z,87.33
2023-01-26T10:27:22.917Z,87.43
2023-01-26T10:28:22.933Z,87.43
2023-01-26T10:29:22.915Z,87.01
2023-01-26T10:30:23.008Z,86.91
2023-01-26T10:31:23.045Z,86.60
2023-01-26T10:32:22.906Z,86.70
2023-01-26T10:33:23.202Z,86.49
2023-01-26T10:34:22.860Z,86.49
2023-01-26T10:35:22.990Z,86.28
2023-01-26T10:36:22.843Z,85.86
2023-01-26T10:37:22.826Z,85.97
2023-01-26T10:38:22.827Z,86.07
2023-01-26T10:39:22.818Z,86.38
2023-01-26T10:40:22.798Z,86.60
2023-01-26T10:41:22.786Z,86.77
2023-01-26T10:42:22.813Z,86.98
2023-01-26T10:43:22.903Z,86.87
2023-01-26T10:44:22.755Z,86.45
2023-01-26T10:45:22.766Z,86.38
2023-01-26T10:46:22.864Z,86.45
2023-01-26T10:47:22.711Z,86.24
2023-01-26T10:48:22.915Z,86.38
2023-01-26T10:49:22.691Z,86.49
2023-01-26T10:50:22.687Z,86.28
2023-01-26T10:51:22.652Z,86.45
2023-01-26T10:52:22.663Z,86.45
2023-01-26T10:53:22.719Z,85.93
2023-01-26T10:54:22.695Z,85.44
2023-01-26T10:57:39.346Z,85.65
2023-01-26T10:57:45.250Z,85.75
2023-01-26T11:03:31.233Z,85.75
2023-01-26T11:03:39.163Z,86.28
2023-01-26T11:04:44.229Z,86.18
2023-01-26T11:06:12.741Z,86.07
2023-01-26T11:06:36.149Z,85.17
2023-01-26T11:07:38.066Z,85.48
2023-01-26T11:08:36.216Z,86.00
2023-01-26T11:09:39.272Z,86.00
2023-01-26T11:11:12.104Z,85.90
2023-01-26T11:11:36.110Z,85.90
2023-01-26T11:12:36.121Z,86.70
2023-01-26T11:13:36.115Z,86.38
2023-01-26T11:14:36.035Z,85.69
2023-01-26T11:15:36.043Z,85.90
2023-01-26T11:16:36.107Z,86.32
2023-01-26T11:17:36.123Z,86.43
2023-01-26T11:18:36.022Z,85.90
2023-01-26T11:19:35.983Z,86.11
2023-01-26T11:20:35.969Z,86.22
2023-01-26T11:21:36.065Z,86.63
2023-01-26T11:22:35.949Z,86.22
2023-01-26T11:23:35.961Z,86.32
2023-01-26T11:24:35.936Z,86.43
2023-01-26T11:25:36.528Z,86.11
2023-01-26T11:26:36.868Z,86.32
2023-01-26T11:27:35.932Z,86.22
2023-01-26T11:28:36.122Z,86.22
2023-01-26T11:29:35.893Z,86.53
2023-01-26T11:30:35.923Z,86.80
2023-01-26T11:31:37.533Z,86.60
2023-01-26T11:32:38.657Z,86.70
2023-01-26T11:33:35.858Z,86.70
2023-01-26T11:34:35.861Z,86.49
2023-01-26T11:35:35.834Z,85.75
2023-01-26T11:36:35.883Z,85.65
2023-01-26T11:37:35.808Z,85.34
2023-01-26T11:38:35.774Z,85.02
2023-01-26T11:39:35.788Z,85.34
2023-01-26T11:40:35.781Z,85.75
2023-01-26T11:41:35.787Z,85.65
2023-01-26T11:44:37.130Z,85.34
2023-01-26T11:45:37.498Z,85.24
2023-01-26T11:46:47.226Z,85.34
2023-01-26T11:48:56.589Z,85.65
2023-01-26T11:53:47.657Z,85.69
2023-01-26T11:56:41.560Z,85.69
2023-01-26T11:59:56.496Z,86.00
2023-01-26T12:00:48.054Z,85.80
2023-01-26T12:08:25.233Z,85.27
2023-01-26T12:11:19.914Z,85.27
2023-01-26T12:12:20.296Z,85.38
2023-01-26T12:13:20.143Z,85.27
2023-01-26T12:14:20.172Z,85.27
2023-01-26T12:15:20.196Z,84.96
2023-01-26T12:16:20.189Z,85.27
2023-01-26T12:17:20.240Z,85.38
2023-01-26T12:18:20.092Z,85.27
2023-01-26T12:19:20.851Z,85.17
2023-01-26T12:20:21.347Z,85.06
2023-01-26T12:21:20.086Z,84.96
2023-01-26T12:22:20.059Z,85.06
2023-01-26T12:23:20.049Z,85.17
2023-01-26T12:24:39.549Z,85.27
2023-01-26T12:25:20.657Z,85.27
2023-01-26T12:26:20.034Z,85.17
2023-01-26T12:27:20.005Z,85.27
2023-01-26T12:28:20.035Z,85.21
2023-01-26T12:29:19.975Z,85.52
2023-01-26T12:30:20.095Z,86.05
2023-01-26T12:31:20.157Z,86.36
2023-01-26T12:32:20.003Z,86.43
2023-01-26T12:33:19.944Z,86.11
2023-01-26T12:34:19.992Z,85.69
2023-01-26T12:35:20.012Z,85.69
2023-01-26T12:36:19.928Z,85.69
2023-01-26T12:37:19.884Z,85.80
2023-01-26T12:38:19.890Z,86.15
2023-01-26T12:39:20.394Z,86.15
2023-01-26T12:40:20.000Z,86.15
2023-01-26T12:41:19.843Z,86.25
2023-01-26T12:42:19.863Z,86.46
2023-01-26T12:43:19.919Z,86.88
2023-01-26T12:44:19.946Z,87.20
2023-01-26T12:45:19.825Z,87.41
2023-01-26T12:46:19.909Z,87.62
2023-01-26T12:47:19.792Z,87.68
2023-01-26T12:48:19.774Z,87.68
2023-01-26T12:49:19.755Z,86.85
2023-01-26T12:50:19.766Z,86.95
2023-01-26T12:51:19.737Z,87.26
2023-01-26T12:52:19.727Z,87.37
2023-01-26T12:53:19.728Z,87.37
2023-01-26T12:54:19.711Z,87.37
2023-01-26T12:55:20.638Z,86.95
2023-01-26T12:56:19.693Z,86.63
2023-01-26T12:57:20.250Z,86.63
2023-01-26T12:58:19.659Z,86.85
2023-01-26T12:59:38.661Z,86.85
2023-01-26T13:00:20.206Z,86.63
2023-01-26T13:01:19.653Z,86.88
2023-01-26T13:02:19.785Z,87.09
2023-01-26T13:03:20.900Z,87.26
2023-01-26T13:04:19.594Z,87.47
2023-01-26T13:05:19.633Z,87.37
2023-01-26T13:06:19.649Z,87.26
2023-01-26T13:07:19.566Z,87.05
2023-01-26T13:08:19.576Z,87.05
2023-01-26T13:09:19.576Z,87.16
2023-01-26T13:10:19.634Z,87.16
2023-01-26T13:11:19.555Z,87.16
2023-01-26T13:12:19.521Z,86.74
2023-01-26T13:13:19.496Z,85.90
2023-01-26T13:14:19.577Z,86.22
2023-01-26T13:15:19.542Z,86.22
2023-01-26T13:16:19.570Z,86.36
2023-01-26T13:17:19.453Z,86.36